Time;durP1;ratioP1;P1;durP2;ratioP2;P2;SDS_P1;SDS_P2;PMS_P1;PMS_P2;Temp;Humidity;BMP_temperature;BMP_pressure;BME280_temperature;BME280_humidity;BME280_pressure;Samples;Min_cycle;Max_cycle;Signal;HPM_P1;HPM_P2
2023/10/28 00:02:14;;;;;;;49.88;19.50;;;;;;;;;;5042929;28;20217;-71
2023/10/28 00:04:39;;;;;;;54.50;20.67;;;;;;;;;;5013469;28;20233;-73
2023/10/28 00:07:05;;;;;;;42.53;19.83;;;;;;;;;;5014566;28;20571;-73
2023/10/28 00:09:30;;;;;;;46.70;21.13;;;;;;;;;;5028284;28;20191;-73
2023/10/28 00:11:55;;;;;;;52.30;22.10;;;;;;;;;;5037178;28;20201;-73
2023/10/28 00:14:21;;;;;;;49.65;21.25;;;;;;;;;;5028374;28;20209;-73
2023/10/28 00:16:49;;;;;;;48.47;21.25;;;;;;;;;;5037018;28;20707;-73
2023/10/28 00:19:16;;;;;;;47.35;22.65;;;;;;;;;;5034207;28;20186;-73
2023/10/28 00:21:41;;;;;;;52.85;22.80;;;;;;;;;;5007360;28;20197;-73
2023/10/28 00:24:07;;;;;;;48.83;24.33;;;;;;;;;;5023222;28;20214;-72
2023/10/28 00:26:32;;;;;;;52.00;26.30;;;;;;;;;;5026565;28;20283;-72
2023/10/28 00:28:58;;;;;;;59.17;25.52;;;;;;;;;;5028372;28;20543;-71
2023/10/28 00:31:24;;;;;;;48.85;24.95;;;;;;;;;;5029218;28;20610;-71
2023/10/28 00:33:49;;;;;;;45.50;23.30;;;;;;;;;;5025132;28;20190;-71
2023/10/28 00:36:15;;;;;;;45.30;23.65;;;;;;;;;;5020419;28;20237;-72
2023/10/28 00:38:40;;;;;;;49.92;22.90;;;;;;;;;;5039104;28;20197;-70
2023/10/28 00:41:06;;;;;;;43.08;22.58;;;;;;;;;;5024128;28;20210;-71
2023/10/28 00:43:32;;;;;;;47.85;24.15;;;;;;;;;;5026177;28;20206;-71
2023/10/28 00:45:59;;;;;;;49.17;22.63;;;;;;;;;;5037060;28;20192;-71
2023/10/28 00:48:25;;;;;;;46.88;23.00;;;;;;;;;;5029037;28;20183;-70
2023/10/28 00:50:50;;;;;;;49.33;21.95;;;;;;;;;;5034616;28;20384;-68
2023/10/28 00:53:17;;;;;;;46.38;22.00;;;;;;;;;;5029007;28;20239;-70
2023/10/28 00:55:43;;;;;;;44.65;22.52;;;;;;;;;;5031551;28;20193;-71
2023/10/28 00:58:09;;;;;;;51.17;23.20;;;;;;;;;;5032415;28;20687;-69
2023/10/28 01:00:35;;;;;;;43.63;21.45;;;;;;;;;;5036786;28;20210;-69
2023/10/28 01:03:02;;;;;;;38.60;20.42;;;;;;;;;;5026703;28;20241;-70
2023/10/28 01:05:29;;;;;;;37.33;19.63;;;;;;;;;;5030766;28;20607;-69
2023/10/28 01:07:55;;;;;;;41.75;20.13;;;;;;;;;;5025990;28;20263;-69
2023/10/28 01:10:40;;;;;;;43.13;19.90;;;;;;;;;;5032345;28;20189;-70
2023/10/28 01:13:06;;;;;;;33.70;20.10;;;;;;;;;;5032867;28;20282;-70
2023/10/28 01:15:31;;;;;;;37.55;20.58;;;;;;;;;;5020503;28;20375;-71
2023/10/28 01:17:57;;;;;;;39.17;20.23;;;;;;;;;;5028512;28;20332;-71
2023/10/28 01:20:22;;;;;;;49.00;20.23;;;;;;;;;;5034486;28;20190;-71
2023/10/28 01:22:48;;;;;;;47.45;19.25;;;;;;;;;;5040691;28;20671;-70
2023/10/28 01:25:13;;;;;;;37.67;18.23;;;;;;;;;;5031191;28;20210;-70
2023/10/28 01:27:39;;;;;;;35.28;18.23;;;;;;;;;;5031209;28;20317;-69
2023/10/28 01:30:05;;;;;;;43.20;19.75;;;;;;;;;;5035511;28;20182;-69
2023/10/28 01:32:30;;;;;;;47.13;20.50;;;;;;;;;;5028159;28;20199;-69
2023/10/28 01:34:56;;;;;;;47.58;19.45;;;;;;;;;;5019259;28;20198;-69
2023/10/28 01:37:21;;;;;;;40.70;20.40;;;;;;;;;;5034410;28;20186;-69
2023/10/28 01:39:51;;;;;;;40.90;19.15;;;;;;;;;;5029508;28;20190;-70
2023/10/28 01:42:17;;;;;;;42.55;19.33;;;;;;;;;;5033010;28;20190;-70
2023/10/28 01:44:42;;;;;;;41.97;18.55;;;;;;;;;;5033174;28;20182;-69
2023/10/28 01:47:08;;;;;;;36.42;19.75;;;;;;;;;;5033992;28;20667;-71
2023/10/28 01:49:37;;;;;;;45.20;18.77;;;;;;;;;;5032891;28;20190;-70
2023/10/28 01:52:04;;;;;;;36.08;18.65;;;;;;;;;;5029594;28;20206;-70
2023/10/28 01:54:30;;;;;;;45.40;18.45;;;;;;;;;;5037443;28;20488;-69
2023/10/28 01:56:57;;;;;;;39.90;17.00;;;;;;;;;;5030358;28;20271;-72
2023/10/28 01:59:27;;;;;;;34.33;16.60;;;;;;;;;;5031448;28;20190;-71
2023/10/28 02:01:53;;;;;;;42.40;16.45;;;;;;;;;;5041863;28;20197;-71
2023/10/28 02:04:19;;;;;;;36.35;16.35;;;;;;;;;;5018106;28;20221;-71
2023/10/28 02:06:44;;;;;;;40.20;17.60;;;;;;;;;;5031049;28;20206;-71
2023/10/28 02:09:10;;;;;;;35.97;18.10;;;;;;;;;;5023733;28;22207;-71
2023/10/28 02:11:39;;;;;;;40.90;17.30;;;;;;;;;;5029917;28;20327;-70
2023/10/28 02:14:05;;;;;;;41.42;17.75;;;;;;;;;;5025169;28;20249;-70
2023/10/28 02:16:30;;;;;;;32.05;16.95;;;;;;;;;;5028614;28;20218;-70
2023/10/28 02:18:55;;;;;;;40.35;18.27;;;;;;;;;;5033364;28;20198;-71
2023/10/28 02:21:21;;;;;;;34.67;18.45;;;;;;;;;;5031725;28;20226;-71
2023/10/28 02:23:46;;;;;;;41.45;19.02;;;;;;;;;;5026807;28;20217;-71
2023/10/28 02:26:12;;;;;;;43.67;17.85;;;;;;;;;;5042985;28;20676;-70
2023/10/28 02:28:37;;;;;;;45.15;18.20;;;;;;;;;;5025735;28;20202;-71
2023/10/28 02:31:08;;;;;;;39.33;17.48;;;;;;;;;;5024009;28;20284;-70
2023/10/28 02:33:33;;;;;;;38.63;16.80;;;;;;;;;;5031685;28;20312;-70
2023/10/28 02:36:04;;;;;;;29.77;16.10;;;;;;;;;;5031116;28;20617;-70
2023/10/28 02:38:29;;;;;;;31.02;15.02;;;;;;;;;;5027725;28;20190;-70
2023/10/28 02:40:55;;;;;;;39.53;15.75;;;;;;;;;;5031544;28;20185;-70
2023/10/28 02:43:20;;;;;;;36.08;15.90;;;;;;;;;;5030695;28;20209;-70
2023/10/28 02:45:46;;;;;;;38.42;16.42;;;;;;;;;;5030855;28;20207;-70
2023/10/28 02:48:11;;;;;;;33.33;15.73;;;;;;;;;;5030611;28;20196;-70
2023/10/28 02:50:37;;;;;;;41.08;16.95;;;;;;;;;;5031576;28;20684;-69
2023/10/28 02:53:03;;;;;;;30.25;14.73;;;;;;;;;;5026335;28;20183;-70
2023/10/28 02:55:28;;;;;;;37.83;16.27;;;;;;;;;;5023962;28;20723;-70
2023/10/28 02:57:54;;;;;;;39.78;16.73;;;;;;;;;;5035693;28;20210;-72
2023/10/28 03:00:19;;;;;;;40.97;15.80;;;;;;;;;;5030091;28;20513;-69
2023/10/28 03:02:44;;;;;;;36.30;14.45;;;;;;;;;;5038433;28;20275;-70
2023/10/28 03:05:10;;;;;;;30.98;14.20;;;;;;;;;;5016840;28;20186;-69
2023/10/28 03:07:35;;;;;;;31.42;13.77;;;;;;;;;;5030055;28;20213;-70
2023/10/28 03:10:01;;;;;;;27.13;12.75;;;;;;;;;;5018288;28;20297;-71
2023/10/28 03:12:26;;;;;;;27.50;13.18;;;;;;;;;;5036857;28;20617;-71
2023/10/28 03:14:51;;;;;;;30.02;12.52;;;;;;;;;;5028296;28;20571;-70
2023/10/28 03:17:17;;;;;;;32.10;13.60;;;;;;;;;;5017462;28;20602;-70
2023/10/28 03:19:42;;;;;;;34.50;13.40;;;;;;;;;;5031275;28;20207;-70
2023/10/28 03:22:08;;;;;;;30.08;13.63;;;;;;;;;;5026744;28;20195;-70
2023/10/28 03:24:33;;;;;;;28.48;13.02;;;;;;;;;;5020722;28;20222;-70
2023/10/28 03:26:59;;;;;;;35.65;13.75;;;;;;;;;;5028953;28;20671;-70
2023/10/28 03:29:24;;;;;;;24.30;11.75;;;;;;;;;;5025482;28;20206;-70
2023/10/28 03:31:49;;;;;;;33.92;11.57;;;;;;;;;;5025244;28;20190;-69
2023/10/28 03:34:15;;;;;;;32.00;13.18;;;;;;;;;;5029749;28;20872;-69
2023/10/28 03:36:41;;;;;;;31.83;12.73;;;;;;;;;;5027029;28;20268;-70
2023/10/28 03:39:07;;;;;;;31.63;12.52;;;;;;;;;;5029590;28;20256;-70
2023/10/28 03:41:33;;;;;;;29.48;12.23;;;;;;;;;;5024592;28;20222;-70
2023/10/28 03:43:58;;;;;;;25.88;12.27;;;;;;;;;;5028851;28;20697;-70
2023/10/28 03:46:25;;;;;;;23.58;11.40;;;;;;;;;;5030354;28;20621;-70
2023/10/28 03:48:50;;;;;;;24.40;12.20;;;;;;;;;;5029176;28;20611;-70
2023/10/28 03:51:16;;;;;;;25.63;11.82;;;;;;;;;;5029478;28;20201;-70
2023/10/28 03:53:41;;;;;;;30.00;11.70;;;;;;;;;;5029881;28;20644;-70
2023/10/28 03:56:08;;;;;;;27.35;11.90;;;;;;;;;;5037284;28;20558;-71
2023/10/28 03:58:34;;;;;;;17.17;9.82;;;;;;;;;;5020145;28;20649;-71
2023/10/28 04:00:59;;;;;;;27.30;10.75;;;;;;;;;;5026230;28;20182;-71
2023/10/28 04:03:25;;;;;;;29.20;10.23;;;;;;;;;;5029300;28;20216;-70
2023/10/28 04:05:51;;;;;;;21.10;10.05;;;;;;;;;;5030094;28;20255;-70
2023/10/28 04:08:16;;;;;;;25.80;10.10;;;;;;;;;;5028927;28;20286;-70
2023/10/28 04:10:42;;;;;;;31.73;10.45;;;;;;;;;;5035023;28;20568;-70
2023/10/28 04:13:08;;;;;;;26.98;10.30;;;;;;;;;;5047214;28;20217;-71
2023/10/28 04:15:35;;;;;;;22.08;8.90;;;;;;;;;;5027940;28;20697;-70
2023/10/28 04:18:01;;;;;;;22.92;9.43;;;;;;;;;;5025535;28;20182;-70
2023/10/28 04:20:27;;;;;;;26.30;9.50;;;;;;;;;;5025290;28;20223;-70
2023/10/28 04:22:52;;;;;;;27.65;9.25;;;;;;;;;;5030694;28;20582;-71
2023/10/28 04:25:18;;;;;;;19.92;8.68;;;;;;;;;;5033040;28;20244;-71
2023/10/28 04:27:44;;;;;;;18.00;9.45;;;;;;;;;;5027461;28;20603;-71
2023/10/28 04:30:10;;;;;;;20.15;8.20;;;;;;;;;;5039981;28;20220;-70
2023/10/28 04:32:39;;;;;;;26.55;9.52;;;;;;;;;;5037500;28;20189;-70
2023/10/28 04:35:05;;;;;;;21.42;8.55;;;;;;;;;;5036831;28;20281;-70
2023/10/28 04:37:31;;;;;;;23.23;8.75;;;;;;;;;;5015594;28;20921;-70
2023/10/28 04:39:56;;;;;;;27.63;8.75;;;;;;;;;;5027011;28;20293;-70
2023/10/28 04:42:22;;;;;;;20.23;8.45;;;;;;;;;;5028157;28;20194;-70
2023/10/28 04:44:47;;;;;;;18.30;8.38;;;;;;;;;;5029194;28;20186;-70
2023/10/28 04:47:13;;;;;;;12.77;7.93;;;;;;;;;;5026955;28;20723;-70
2023/10/28 04:49:39;;;;;;;16.50;7.65;;;;;;;;;;5027990;28;20556;-70
2023/10/28 04:52:08;;;;;;;17.50;7.75;;;;;;;;;;5027043;28;20201;-69
2023/10/28 04:54:34;;;;;;;17.55;7.18;;;;;;;;;;5028431;28;20551;-70
2023/10/28 04:57:00;;;;;;;16.30;7.00;;;;;;;;;;5029142;28;20190;-69
2023/10/28 04:59:25;;;;;;;16.35;7.22;;;;;;;;;;5025018;28;20291;-70
2023/10/28 05:01:51;;;;;;;11.65;6.85;;;;;;;;;;5029539;28;20194;-70
2023/10/28 05:04:16;;;;;;;13.48;6.65;;;;;;;;;;5024326;28;20214;-70
2023/10/28 05:06:43;;;;;;;16.55;6.45;;;;;;;;;;5022322;28;20385;-70
2023/10/28 05:09:08;;;;;;;13.50;6.05;;;;;;;;;;5027217;28;20193;-69
2023/10/28 05:11:34;;;;;;;16.30;5.57;;;;;;;;;;5018598;28;20186;-69
2023/10/28 05:14:01;;;;;;;12.90;5.80;;;;;;;;;;5028887;28;20649;-69
2023/10/28 05:16:26;;;;;;;11.38;5.30;;;;;;;;;;5018861;28;20737;-69
2023/10/28 05:18:51;;;;;;;12.82;5.75;;;;;;;;;;5020301;28;20194;-69
2023/10/28 05:21:18;;;;;;;11.15;5.72;;;;;;;;;;5012330;28;20250;-69
2023/10/28 05:23:44;;;;;;;12.10;5.75;;;;;;;;;;5032912;28;20292;-69
2023/10/28 05:26:09;;;;;;;15.60;5.88;;;;;;;;;;5036437;28;20189;-70
2023/10/28 05:28:34;;;;;;;13.70;5.75;;;;;;;;;;5040589;28;20194;-69
2023/10/28 05:31:00;;;;;;;13.80;6.20;;;;;;;;;;5020510;28;20317;-69
2023/10/28 05:33:25;;;;;;;11.57;6.35;;;;;;;;;;5021640;28;20699;-69
2023/10/28 05:35:51;;;;;;;11.73;6.78;;;;;;;;;;5036659;28;20186;-70
2023/10/28 05:38:17;;;;;;;13.57;5.70;;;;;;;;;;5031273;28;20231;-69
2023/10/28 05:40:42;;;;;;;10.20;6.10;;;;;;;;;;5045634;28;20622;-69
2023/10/28 05:43:08;;;;;;;12.13;5.38;;;;;;;;;;5030124;28;20241;-69
2023/10/28 05:45:33;;;;;;;15.13;5.30;;;;;;;;;;5029700;28;20194;-69
2023/10/28 05:47:59;;;;;;;12.18;4.97;;;;;;;;;;5021491;28;20653;-70
2023/10/28 05:50:24;;;;;;;10.65;4.70;;;;;;;;;;5027672;28;20198;-69
2023/10/28 05:52:49;;;;;;;14.48;4.82;;;;;;;;;;5028031;28;20283;-70
2023/10/28 05:55:15;;;;;;;7.97;5.25;;;;;;;;;;5032360;28;20231;-69
2023/10/28 05:57:41;;;;;;;12.80;4.90;;;;;;;;;;5043704;28;20198;-69
2023/10/28 06:00:10;;;;;;;15.35;4.57;;;;;;;;;;5020930;28;20203;-69
2023/10/28 06:02:37;;;;;;;12.75;4.80;;;;;;;;;;5029689;28;20531;-69
2023/10/28 06:05:05;;;;;;;14.23;5.40;;;;;;;;;;5031392;28;20197;-69
2023/10/28 06:07:31;;;;;;;12.32;5.18;;;;;;;;;;5017012;28;20248;-69
2023/10/28 06:09:57;;;;;;;14.13;4.85;;;;;;;;;;5019232;28;20186;-69
2023/10/28 06:12:22;;;;;;;10.52;5.45;;;;;;;;;;5034986;28;20236;-70
2023/10/28 06:14:47;;;;;;;10.85;5.28;;;;;;;;;;5042943;28;20301;-69
2023/10/28 06:17:16;;;;;;;17.27;5.38;;;;;;;;;;5031001;28;20468;-70
2023/10/28 06:19:41;;;;;;;11.90;5.78;;;;;;;;;;5022141;28;20210;-70
2023/10/28 06:22:07;;;;;;;11.75;5.43;;;;;;;;;;5018549;28;20591;-70
2023/10/28 06:24:33;;;;;;;10.70;6.18;;;;;;;;;;5027424;28;20224;-71
2023/10/28 06:26:59;;;;;;;14.20;6.20;;;;;;;;;;5026203;28;20186;-70
2023/10/28 06:29:25;;;;;;;11.45;6.28;;;;;;;;;;5045431;28;20251;-70
2023/10/28 06:31:51;;;;;;;16.88;5.65;;;;;;;;;;5029033;28;20194;-70
2023/10/28 06:34:17;;;;;;;13.38;6.32;;;;;;;;;;5027629;28;20688;-70
2023/10/28 06:36:42;;;;;;;13.05;7.25;;;;;;;;;;5027807;28;20273;-71
2023/10/28 06:39:10;;;;;;;14.65;6.20;;;;;;;;;;5016302;28;20189;-69
2023/10/28 06:41:36;;;;;;;15.02;7.05;;;;;;;;;;5021301;28;20202;-70
2023/10/28 06:44:06;;;;;;;16.85;7.85;;;;;;;;;;5043763;28;20268;-70
2023/10/28 06:46:34;;;;;;;12.38;6.72;;;;;;;;;;5027328;28;20621;-71
2023/10/28 06:49:00;;;;;;;15.35;6.70;;;;;;;;;;5020421;28;20286;-70
2023/10/28 06:51:26;;;;;;;14.77;6.90;;;;;;;;;;5028005;28;20198;-70
2023/10/28 06:53:51;;;;;;;16.08;7.63;;;;;;;;;;5022971;28;20205;-70
2023/10/28 06:56:17;;;;;;;17.20;7.63;;;;;;;;;;5017995;28;20210;-70
2023/10/28 06:58:42;;;;;;;18.10;7.70;;;;;;;;;;5030375;28;20328;-69
2023/10/28 07:01:09;;;;;;;15.63;7.85;;;;;;;;;;5029693;28;20196;-72
2023/10/28 07:03:37;;;;;;;14.20;7.10;;;;;;;;;;5023781;28;20682;-70
2023/10/28 07:06:07;;;;;;;13.98;6.75;;;;;;;;;;5024817;28;20190;-71
2023/10/28 07:08:33;;;;;;;18.83;7.07;;;;;;;;;;5020885;28;20221;-69
2023/10/28 07:10:59;;;;;;;14.65;6.60;;;;;;;;;;5029492;28;20665;-70
2023/10/28 07:13:24;;;;;;;14.38;7.15;;;;;;;;;;5027083;28;20637;-69
2023/10/28 07:16:02;;;;;;;16.50;6.72;;;;;;;;;;5021217;28;20248;-70
2023/10/28 07:18:29;;;;;;;17.27;6.72;;;;;;;;;;5030050;28;20715;-71
2023/10/28 07:20:56;;;;;;;12.93;6.70;;;;;;;;;;5024130;28;20217;-69
2023/10/28 07:23:21;;;;;;;14.40;6.75;;;;;;;;;;5027747;28;20206;-69
2023/10/28 07:25:47;;;;;;;12.88;6.70;;;;;;;;;;5019642;28;20610;-70
2023/10/28 07:28:14;;;;;;;13.65;5.50;;;;;;;;;;5029192;28;20678;-70
2023/10/28 07:30:53;;;;;;;15.80;6.20;;;;;;;;;;5029321;28;20648;-70
2023/10/28 07:33:19;;;;;;;13.38;5.78;;;;;;;;;;5021103;28;20563;-70
2023/10/28 07:35:45;;;;;;;15.55;5.30;;;;;;;;;;5030326;28;20206;-69
2023/10/28 07:38:12;;;;;;;10.55;5.70;;;;;;;;;;5027603;28;20282;-69
2023/10/28 07:40:41;;;;;;;12.00;5.30;;;;;;;;;;5022533;28;20194;-69
2023/10/28 07:43:07;;;;;;;13.82;5.15;;;;;;;;;;5022117;28;20313;-70
2023/10/28 07:45:33;;;;;;;8.65;5.05;;;;;;;;;;5019903;28;20262;-69
2023/10/28 07:47:59;;;;;;;14.13;5.38;;;;;;;;;;5024570;28;20575;-70
2023/10/28 07:50:24;;;;;;;10.27;5.53;;;;;;;;;;5026947;28;20186;-70
2023/10/28 07:52:49;;;;;;;9.25;5.38;;;;;;;;;;5022621;28;20214;-69
2023/10/28 07:55:15;;;;;;;9.38;5.35;;;;;;;;;;5018893;28;20194;-70
2023/10/28 07:57:40;;;;;;;14.20;5.78;;;;;;;;;;5019404;28;20285;-70
2023/10/28 08:00:07;;;;;;;11.38;4.95;;;;;;;;;;5019260;28;20217;-70
2023/10/28 08:02:32;;;;;;;14.80;5.07;;;;;;;;;;5015695;28;20197;-70
2023/10/28 08:04:58;;;;;;;10.80;4.50;;;;;;;;;;5021949;28;20186;-70
2023/10/28 08:07:24;;;;;;;14.43;5.55;;;;;;;;;;5008473;28;20281;-70
2023/10/28 08:09:50;;;;;;;11.40;4.80;;;;;;;;;;5021688;28;20288;-70
2023/10/28 08:12:16;;;;;;;13.95;4.68;;;;;;;;;;5013295;28;20680;-70
2023/10/28 08:14:44;;;;;;;11.30;4.95;;;;;;;;;;5027769;28;20296;-70
2023/10/28 08:17:10;;;;;;;9.55;4.50;;;;;;;;;;5025055;28;20233;-69
2023/10/28 08:19:35;;;;;;;10.00;5.03;;;;;;;;;;5023646;28;20576;-70
2023/10/28 08:22:01;;;;;;;14.63;4.60;;;;;;;;;;5024637;28;20268;-70
2023/10/28 08:24:26;;;;;;;11.82;3.97;;;;;;;;;;5011153;28;20280;-69
2023/10/28 08:26:51;;;;;;;10.38;4.70;;;;;;;;;;5026649;28;20186;-71
2023/10/28 08:29:17;;;;;;;11.93;4.70;;;;;;;;;;5025826;28;20671;-69
2023/10/28 08:31:42;;;;;;;12.18;4.40;;;;;;;;;;5027773;28;20194;-68
2023/10/28 08:34:08;;;;;;;8.57;4.57;;;;;;;;;;5020214;28;20199;-71
2023/10/28 08:36:36;;;;;;;8.40;3.97;;;;;;;;;;5027778;28;20575;-69
2023/10/28 08:39:03;;;;;;;7.15;3.65;;;;;;;;;;5028067;28;20588;-70
2023/10/28 08:41:29;;;;;;;7.10;3.85;;;;;;;;;;5028503;28;20499;-69
2023/10/28 08:43:58;;;;;;;8.32;3.50;;;;;;;;;;5028350;28;20213;-69
2023/10/28 08:46:24;;;;;;;8.15;3.78;;;;;;;;;;5015783;28;20677;-70
2023/10/28 08:48:52;;;;;;;6.43;3.30;;;;;;;;;;5022738;28;20684;-70
2023/10/28 08:51:18;;;;;;;8.10;3.40;;;;;;;;;;5015862;28;20217;-69
2023/10/28 08:53:45;;;;;;;4.38;3.13;;;;;;;;;;5019649;28;20213;-69
2023/10/28 08:56:16;;;;;;;5.95;3.53;;;;;;;;;;5027642;28;20227;-69
2023/10/28 08:58:41;;;;;;;8.32;3.25;;;;;;;;;;5020439;28;20190;-68
2023/10/28 09:01:08;;;;;;;6.75;2.88;;;;;;;;;;5031174;28;20193;-69
2023/10/28 09:03:36;;;;;;;7.38;3.17;;;;;;;;;;5025096;28;20218;-69
2023/10/28 09:06:02;;;;;;;6.95;3.00;;;;;;;;;;5017979;28;20187;-69
2023/10/28 09:08:27;;;;;;;7.50;3.30;;;;;;;;;;5022713;28;20194;-69
2023/10/28 09:10:54;;;;;;;6.28;2.75;;;;;;;;;;5027145;28;20194;-69
2023/10/28 09:13:20;;;;;;;4.90;2.78;;;;;;;;;;5025492;28;20260;-73
2023/10/28 09:15:46;;;;;;;8.65;3.55;;;;;;;;;;5031002;28;20320;-70
2023/10/28 09:18:11;;;;;;;10.02;3.35;;;;;;;;;;5027512;28;20218;-70
2023/10/28 09:20:41;;;;;;;6.95;2.88;;;;;;;;;;5025526;28;20750;-69
2023/10/28 09:23:06;;;;;;;9.65;3.17;;;;;;;;;;5025779;28;20218;-70
2023/10/28 09:25:34;;;;;;;8.27;3.15;;;;;;;;;;5029703;28;20197;-69
2023/10/28 09:28:00;;;;;;;6.38;2.97;;;;;;;;;;5024466;28;20728;-69
2023/10/28 09:30:26;;;;;;;8.68;3.35;;;;;;;;;;5030921;28;20190;-69
2023/10/28 09:32:55;;;;;;;8.13;3.20;;;;;;;;;;5026922;28;20247;-70
2023/10/28 09:35:22;;;;;;;6.57;3.13;;;;;;;;;;5025544;28;20206;-70
2023/10/28 09:37:48;;;;;;;8.00;2.97;;;;;;;;;;5019530;28;20474;-70
2023/10/28 09:40:14;;;;;;;8.98;3.22;;;;;;;;;;5024071;28;20194;-71
2023/10/28 09:42:43;;;;;;;8.65;3.20;;;;;;;;;;5025962;28;20250;-72
2023/10/28 09:45:09;;;;;;;7.00;3.10;;;;;;;;;;5021759;28;20665;-72
2023/10/28 09:47:48;;;;;;;7.32;3.25;;;;;;;;;;5029294;28;20220;-70
2023/10/28 09:50:14;;;;;;;6.32;2.67;;;;;;;;;;5031332;28;20238;-72
2023/10/28 09:52:45;;;;;;;8.10;2.70;;;;;;;;;;5026220;28;20331;-71
2023/10/28 09:55:14;;;;;;;6.28;3.05;;;;;;;;;;5033893;28;20182;-70
2023/10/28 09:57:40;;;;;;;6.38;2.72;;;;;;;;;;5016115;28;20194;-70
2023/10/28 10:00:18;;;;;;;9.35;2.70;;;;;;;;;;5030301;28;20197;-70
2023/10/28 10:03:06;;;;;;;5.80;2.35;;;;;;;;;;5024784;28;20225;-69
2023/10/28 10:05:45;;;;;;;6.60;2.72;;;;;;;;;;5020661;28;20190;-69
2023/10/28 10:08:18;;;;;;;6.30;3.03;;;;;;;;;;5033415;28;20364;-69
2023/10/28 10:10:45;;;;;;;5.93;3.10;;;;;;;;;;5030090;28;20567;-70
2023/10/28 10:13:11;;;;;;;7.75;3.30;;;;;;;;;;5039493;28;20185;-69
2023/10/28 10:15:42;;;;;;;6.22;3.17;;;;;;;;;;5026470;28;20277;-70
2023/10/28 10:18:11;;;;;;;9.95;3.22;;;;;;;;;;5024857;28;20190;-69
2023/10/28 10:20:43;;;;;;;5.43;3.08;;;;;;;;;;5023676;28;20634;-69
2023/10/28 10:23:09;;;;;;;6.20;2.97;;;;;;;;;;5023745;28;20734;-68
2023/10/28 10:25:41;;;;;;;7.80;3.00;;;;;;;;;;5023521;28;20205;-69
2023/10/28 10:28:19;;;;;;;6.32;2.65;;;;;;;;;;5013369;28;20236;-69
2023/10/28 10:30:45;;;;;;;7.55;2.90;;;;;;;;;;5018770;28;20206;-69
2023/10/28 10:33:11;;;;;;;7.68;3.03;;;;;;;;;;5028762;28;20267;-69
2023/10/28 10:35:38;;;;;;;6.97;2.95;;;;;;;;;;5030647;28;20187;-69
2023/10/28 10:38:10;;;;;;;6.95;3.15;;;;;;;;;;5015211;28;20741;-69
2023/10/28 10:40:41;;;;;;;8.05;2.83;;;;;;;;;;5018387;28;20257;-69
2023/10/28 10:43:08;;;;;;;4.05;2.72;;;;;;;;;;5019089;28;20214;-69
2023/10/28 10:45:35;;;;;;;5.93;2.90;;;;;;;;;;5017506;28;20190;-69
2023/10/28 10:48:02;;;;;;;5.53;2.50;;;;;;;;;;5030954;28;20186;-69
2023/10/28 10:50:28;;;;;;;5.88;2.80;;;;;;;;;;5031055;28;20564;-69
2023/10/28 10:52:54;;;;;;;11.68;3.00;;;;;;;;;;5024624;28;20190;-69
2023/10/28 10:55:23;;;;;;;5.45;2.53;;;;;;;;;;5029132;28;20595;-69
2023/10/28 10:57:52;;;;;;;7.20;3.03;;;;;;;;;;5021234;28;20237;-69
2023/10/28 11:00:18;;;;;;;4.88;2.47;;;;;;;;;;5029964;28;20221;-69
2023/10/28 11:02:45;;;;;;;4.63;2.63;;;;;;;;;;5027381;28;20205;-69
2023/10/28 11:05:11;;;;;;;6.85;2.72;;;;;;;;;;5029070;28;20201;-68
2023/10/28 11:07:37;;;;;;;7.53;2.70;;;;;;;;;;5033313;28;20676;-70
2023/10/28 11:10:08;;;;;;;5.20;2.42;;;;;;;;;;5030013;28;20206;-68
2023/10/28 11:12:33;;;;;;;6.35;2.58;;;;;;;;;;5027957;28;20189;-70
2023/10/28 11:14:59;;;;;;;6.20;2.15;;;;;;;;;;5023194;28;20211;-70
2023/10/28 11:17:25;;;;;;;6.15;2.42;;;;;;;;;;5023923;28;20194;-69
2023/10/28 11:19:50;;;;;;;6.55;2.60;;;;;;;;;;5014248;28;20276;-70
2023/10/28 11:22:16;;;;;;;8.35;2.47;;;;;;;;;;5024059;28;20640;-71
2023/10/28 11:24:42;;;;;;;4.65;2.60;;;;;;;;;;5019553;28;20217;-70
2023/10/28 11:27:08;;;;;;;4.78;1.90;;;;;;;;;;5028520;28;20248;-70
2023/10/28 11:29:38;;;;;;;5.60;2.08;;;;;;;;;;5021121;28;20190;-70
2023/10/28 11:32:07;;;;;;;4.82;2.25;;;;;;;;;;5025601;28;20359;-70
2023/10/28 11:34:40;;;;;;;4.60;2.22;;;;;;;;;;5026431;28;20189;-70
2023/10/28 11:37:09;;;;;;;5.72;1.98;;;;;;;;;;5029568;28;20186;-70
2023/10/28 11:39:36;;;;;;;4.72;1.80;;;;;;;;;;5022495;28;20266;-70
2023/10/28 11:42:15;;;;;;;7.97;2.13;;;;;;;;;;5028884;28;20661;-70
2023/10/28 11:44:46;;;;;;;6.35;1.95;;;;;;;;;;5010298;28;20667;-70
2023/10/28 11:47:11;;;;;;;4.78;1.88;;;;;;;;;;5011001;28;20210;-70
2023/10/28 11:49:37;;;;;;;6.85;1.88;;;;;;;;;;5017475;28;20228;-69
2023/10/28 11:52:03;;;;;;;6.63;1.95;;;;;;;;;;5029144;28;20197;-69
2023/10/28 11:54:29;;;;;;;6.43;2.00;;;;;;;;;;5023184;28;20613;-69
2023/10/28 11:56:54;;;;;;;5.47;1.70;;;;;;;;;;5023812;28;20279;-69
2023/10/28 11:59:19;;;;;;;4.82;1.80;;;;;;;;;;5026920;28;20609;-69
2023/10/28 12:01:45;;;;;;;4.47;1.95;;;;;;;;;;5021725;28;20195;-69
2023/10/28 12:04:11;;;;;;;4.50;1.67;;;;;;;;;;5022768;28;20855;-69
2023/10/28 12:06:36;;;;;;;8.88;1.58;;;;;;;;;;5016397;28;20209;-69
2023/10/28 12:09:11;;;;;;;4.05;1.40;;;;;;;;;;5024986;28;20637;-68
2023/10/28 12:11:36;;;;;;;8.27;1.70;;;;;;;;;;5030836;28;20190;-68
2023/10/28 12:14:01;;;;;;;3.78;1.50;;;;;;;;;;5026755;28;20352;-68
2023/10/28 12:16:29;;;;;;;5.93;1.40;;;;;;;;;;5022061;28;20234;-67
2023/10/28 12:18:54;;;;;;;3.65;1.58;;;;;;;;;;5021908;28;20187;-67
2023/10/28 12:21:20;;;;;;;4.25;1.50;;;;;;;;;;5021757;28;20200;-68
2023/10/28 12:23:45;;;;;;;5.43;1.40;;;;;;;;;;5018078;28;20212;-68
2023/10/28 12:26:11;;;;;;;5.20;1.48;;;;;;;;;;5018810;28;20610;-69
2023/10/28 12:28:36;;;;;;;5.65;1.30;;;;;;;;;;5027179;28;20624;-70
2023/10/28 12:31:05;;;;;;;6.00;1.63;;;;;;;;;;5037059;28;20208;-68
2023/10/28 12:33:31;;;;;;;6.47;1.85;;;;;;;;;;5027963;28;20178;-68
2023/10/28 12:35:57;;;;;;;5.38;1.50;;;;;;;;;;5012961;28;20186;-68
2023/10/28 12:38:23;;;;;;;5.45;1.58;;;;;;;;;;5019358;28;20224;-68
2023/10/28 12:40:49;;;;;;;7.07;1.67;;;;;;;;;;5019379;28;20241;-69
2023/10/28 12:43:14;;;;;;;6.50;1.45;;;;;;;;;;5018388;28;20214;-68
2023/10/28 12:45:40;;;;;;;6.95;1.70;;;;;;;;;;5024158;28;20185;-68
2023/10/28 12:48:05;;;;;;;7.25;1.83;;;;;;;;;;5024194;28;20199;-70
2023/10/28 12:50:31;;;;;;;6.32;1.35;;;;;;;;;;5018270;28;20187;-68
2023/10/28 12:52:57;;;;;;;4.50;1.20;;;;;;;;;;5023957;28;20256;-68
2023/10/28 12:55:23;;;;;;;4.85;1.55;;;;;;;;;;5016986;28;20210;-69
2023/10/28 12:57:49;;;;;;;4.82;1.65;;;;;;;;;;5022354;28;20198;-69
2023/10/28 13:00:16;;;;;;;7.15;1.80;;;;;;;;;;5018665;28;20330;-68
2023/10/28 13:02:44;;;;;;;4.47;1.50;;;;;;;;;;5011606;28;20199;-68
2023/10/28 13:05:10;;;;;;;6.05;1.30;;;;;;;;;;5016122;28;20332;-68
2023/10/28 13:07:35;;;;;;;4.80;1.35;;;;;;;;;;5024084;28;20277;-68
2023/10/28 13:10:00;;;;;;;8.27;1.90;;;;;;;;;;5027417;28;20658;-68
2023/10/28 13:12:26;;;;;;;5.32;1.73;;;;;;;;;;5019287;28;20210;-68
2023/10/28 13:14:52;;;;;;;7.93;1.98;;;;;;;;;;5017946;28;20210;-68
2023/10/28 13:17:17;;;;;;;6.35;1.30;;;;;;;;;;5012883;28;20298;-68
2023/10/28 13:19:42;;;;;;;6.70;1.45;;;;;;;;;;5019141;28;20197;-68
2023/10/28 13:22:08;;;;;;;5.93;1.20;;;;;;;;;;5012559;28;20340;-68
2023/10/28 13:24:33;;;;;;;6.93;1.80;;;;;;;;;;5023918;28;20257;-68
2023/10/28 13:26:59;;;;;;;7.05;1.75;;;;;;;;;;5016971;28;20197;-68
2023/10/28 13:29:24;;;;;;;6.25;1.85;;;;;;;;;;5020826;28;20265;-70
2023/10/28 13:31:50;;;;;;;10.50;2.03;;;;;;;;;;5024766;28;20511;-68
2023/10/28 13:34:16;;;;;;;5.72;2.30;;;;;;;;;;5024159;28;20624;-69
2023/10/28 13:36:42;;;;;;;8.75;2.17;;;;;;;;;;5019498;28;20213;-69
2023/10/28 13:39:08;;;;;;;10.60;2.55;;;;;;;;;;5023049;28;20216;-69
2023/10/28 13:41:33;;;;;;;7.63;2.53;;;;;;;;;;5023704;28;20190;-69
2023/10/28 13:44:02;;;;;;;8.20;2.78;;;;;;;;;;5011371;28;20277;-68
2023/10/28 13:46:28;;;;;;;8.15;2.55;;;;;;;;;;5026124;28;20216;-68
2023/10/28 13:48:53;;;;;;;8.20;3.13;;;;;;;;;;5024839;28;20559;-68
2023/10/28 13:51:19;;;;;;;10.35;2.60;;;;;;;;;;5029585;28;20182;-69
2023/10/28 13:53:44;;;;;;;7.18;2.08;;;;;;;;;;5021615;28;20186;-69
2023/10/28 13:56:10;;;;;;;6.43;2.20;;;;;;;;;;5032649;28;20229;-67
2023/10/28 13:58:36;;;;;;;5.78;1.70;;;;;;;;;;5026807;28;20716;-68
2023/10/28 14:01:08;;;;;;;7.15;1.98;;;;;;;;;;5020248;28;20334;-68
2023/10/28 14:03:34;;;;;;;4.43;1.80;;;;;;;;;;5027307;28;20205;-68
2023/10/28 14:06:14;;;;;;;7.93;1.65;;;;;;;;;;5025501;28;20190;-68
2023/10/28 14:08:40;;;;;;;6.68;1.90;;;;;;;;;;5036283;28;20901;-68
2023/10/28 14:11:08;;;;;;;6.72;1.70;;;;;;;;;;5030690;28;20210;-68
2023/10/28 14:13:40;;;;;;;7.47;1.80;;;;;;;;;;5022707;28;20653;-68
2023/10/28 14:16:13;;;;;;;7.32;1.95;;;;;;;;;;5022566;28;20226;-69
2023/10/28 14:18:39;;;;;;;7.65;1.92;;;;;;;;;;5029953;28;20216;-68
2023/10/28 14:21:04;;;;;;;8.02;2.15;;;;;;;;;;5025035;28;20927;-68
2023/10/28 14:23:29;;;;;;;6.25;1.90;;;;;;;;;;5018718;28;20223;-68
2023/10/28 14:25:55;;;;;;;5.72;1.40;;;;;;;;;;5022735;28;20618;-68
2023/10/28 14:28:20;;;;;;;5.53;1.70;;;;;;;;;;5025884;28;20275;-68